createdAt,value
2018-08-10T00:01:18.700Z,2.03
2018-08-10T00:03:46.948Z,1.93
2018-08-10T00:06:15.247Z,2.40
2018-08-10T00:08:43.546Z,1.63
2018-08-10T00:11:11.917Z,1.70
2018-08-10T00:13:40.425Z,2.23
2018-08-10T00:16:08.734Z,1.73
2018-08-10T00:18:37.082Z,2.20
2018-08-10T00:21:05.377Z,2.10
2018-08-10T00:23:33.632Z,2.10
2018-08-10T00:26:02.812Z,2.30
2018-08-10T00:28:31.195Z,2.40
2018-08-10T00:30:59.521Z,2.33
2018-08-10T00:33:27.807Z,2.27
2018-08-10T00:35:56.073Z,2.93
2018-08-10T00:38:24.368Z,2.60
2018-08-10T00:40:52.786Z,3.03
2018-08-10T00:43:21.064Z,4.00
2018-08-10T00:45:49.424Z,4.43
2018-08-10T00:48:17.716Z,4.50
2018-08-10T00:50:45.993Z,5.73
2018-08-10T00:53:14.340Z,4.60
2018-08-10T00:55:42.622Z,5.20
2018-08-10T00:58:10.905Z,5.27
2018-08-10T01:00:39.195Z,5.00
2018-08-10T01:03:07.506Z,5.10
2018-08-10T01:05:35.771Z,5.33
2018-08-10T01:08:04.485Z,5.08
2018-08-10T01:10:32.793Z,5.47
2018-08-10T01:13:01.094Z,5.17
2018-08-10T01:15:29.367Z,5.23
2018-08-10T01:17:57.651Z,5.70
2018-08-10T01:20:25.948Z,4.77
2018-08-10T01:22:59.398Z,5.00
2018-08-10T01:25:28.118Z,4.73
2018-08-10T01:28:02.418Z,4.00
2018-08-10T01:30:31.771Z,3.83
2018-08-10T01:33:00.314Z,3.60
2018-08-10T01:35:29.216Z,2.90
2018-08-10T01:37:58.567Z,2.63
2018-08-10T01:40:26.877Z,2.60
2018-08-10T01:42:55.175Z,2.83
2018-08-10T01:45:23.483Z,2.60
2018-08-10T01:47:51.795Z,2.43
2018-08-10T01:50:20.121Z,2.30
2018-08-10T01:52:48.414Z,3.00
2018-08-10T01:55:16.723Z,2.77
2018-08-10T01:57:45.016Z,3.03
2018-08-10T02:00:13.356Z,2.80
2018-08-10T02:02:41.601Z,2.33
2018-08-10T02:05:11.803Z,2.95
2018-08-10T02:07:40.685Z,2.50
2018-08-10T02:10:13.130Z,2.60
2018-08-10T02:12:42.291Z,2.87
2018-08-10T02:15:14.036Z,3.07
2018-08-10T02:17:42.315Z,3.40
2018-08-10T02:20:12.559Z,3.93
2018-08-10T02:22:40.850Z,4.20
2018-08-10T02:25:10.783Z,5.00
2018-08-10T02:27:39.231Z,5.30
2018-08-10T02:30:09.507Z,5.47
2018-08-10T02:32:38.259Z,6.20
2018-08-10T02:35:06.882Z,6.33
2018-08-10T02:37:35.186Z,6.03
2018-08-10T02:40:03.694Z,7.00
2018-08-10T02:42:31.972Z,7.43
2018-08-10T02:45:00.264Z,7.23
2018-08-10T02:47:28.527Z,8.53
2018-08-10T02:49:56.993Z,7.97
2018-08-10T02:52:25.328Z,8.70
2018-08-10T02:54:54.096Z,8.33
2018-08-10T02:57:22.733Z,8.23
2018-08-10T02:59:50.987Z,8.10
2018-08-10T03:02:19.333Z,8.37
2018-08-10T03:04:48.189Z,8.77
2018-08-10T03:07:16.479Z,8.20
2018-08-10T03:09:44.767Z,8.00
2018-08-10T03:12:13.692Z,8.20
2018-08-10T03:14:42.478Z,8.00
2018-08-10T03:17:11.190Z,7.40
2018-08-10T03:19:39.565Z,7.43
2018-08-10T03:22:08.108Z,8.10
2018-08-10T03:24:36.756Z,7.90
2018-08-10T03:27:05.405Z,7.40
2018-08-10T03:29:33.722Z,7.70
2018-08-10T03:32:02.028Z,7.70
2018-08-10T03:34:30.316Z,6.87
2018-08-10T03:36:58.597Z,6.97
2018-08-10T03:39:26.904Z,6.60
2018-08-10T03:41:55.210Z,6.70
2018-08-10T03:44:23.534Z,7.07
2018-08-10T03:46:51.824Z,6.87
2018-08-10T03:49:20.131Z,7.30
2018-08-10T03:51:48.408Z,7.00
2018-08-10T03:54:16.723Z,6.57
2018-08-10T03:56:45.024Z,6.83
2018-08-10T03:59:13.301Z,6.45
2018-08-10T04:01:41.576Z,6.30
2018-08-10T04:04:09.942Z,7.17
2018-08-10T04:06:38.243Z,6.87
2018-08-10T04:09:08.666Z,6.13
2018-08-10T04:11:37.472Z,7.07
2018-08-10T04:14:05.839Z,6.27
2018-08-10T04:16:34.363Z,7.10
2018-08-10T04:19:02.743Z,7.40
2018-08-10T04:21:31.160Z,7.10
2018-08-10T04:23:59.884Z,7.60
2018-08-10T04:26:28.236Z,7.83
2018-08-10T04:28:56.654Z,8.20
2018-08-10T04:31:24.971Z,7.55
2018-08-10T04:33:53.289Z,8.27
2018-08-10T04:36:21.605Z,8.47
2018-08-10T04:38:49.912Z,8.23
2018-08-10T04:41:18.267Z,7.97
2018-08-10T04:43:47.398Z,8.00
2018-08-10T04:46:15.744Z,7.80
2018-08-10T04:48:44.080Z,8.47
2018-08-10T04:51:12.976Z,7.87
2018-08-10T04:53:41.417Z,7.50
2018-08-10T04:56:09.877Z,8.53
2018-08-10T04:58:38.288Z,7.47
2018-08-10T05:01:06.707Z,7.33
2018-08-10T05:03:35.114Z,7.03
2018-08-10T05:06:03.443Z,7.37
2018-08-10T05:08:31.760Z,7.17
2018-08-10T05:11:00.094Z,6.90
2018-08-10T05:13:28.457Z,7.17
2018-08-10T05:15:56.801Z,6.70
2018-08-10T05:18:25.215Z,6.83
2018-08-10T05:20:53.547Z,6.90
2018-08-10T05:23:21.891Z,6.47
2018-08-10T05:25:50.324Z,5.80
2018-08-10T05:28:18.676Z,5.55
2018-08-10T05:30:46.989Z,4.77
2018-08-10T05:33:15.393Z,4.95
2018-08-10T05:35:43.667Z,4.83
2018-08-10T05:38:11.961Z,5.70
2018-08-10T05:40:40.329Z,5.13
2018-08-10T05:43:09.008Z,5.17
2018-08-10T05:45:37.952Z,4.67
2018-08-10T05:48:07.319Z,4.60
2018-08-10T05:50:35.660Z,4.10
2018-08-10T05:57:58.567Z,3.97
2018-08-10T06:00:26.902Z,3.90
2018-08-10T06:02:55.322Z,3.87
2018-08-10T06:05:24.100Z,3.47
2018-08-10T06:07:52.476Z,3.37
2018-08-10T06:10:21.469Z,3.42
2018-08-10T06:12:49.780Z,3.70
2018-08-10T06:15:18.183Z,3.25
2018-08-10T06:17:46.513Z,3.47
2018-08-10T06:20:14.849Z,3.40
2018-08-10T06:22:43.175Z,3.70
2018-08-10T06:25:11.688Z,2.90
2018-08-10T06:27:39.974Z,3.17
2018-08-10T06:30:09.826Z,3.17
2018-08-10T06:32:38.238Z,3.80
2018-08-10T06:35:07.889Z,3.33
2018-08-10T06:37:36.329Z,3.33
2018-08-10T06:40:05.315Z,3.23
2018-08-10T06:42:33.701Z,3.53
2018-08-10T06:45:02.147Z,3.00
2018-08-10T06:47:30.400Z,2.87
2018-08-10T06:49:58.718Z,3.37
2018-08-10T06:52:26.992Z,3.10
2018-08-10T06:54:55.277Z,3.33
2018-08-10T06:57:23.635Z,3.17
2018-08-10T06:59:51.958Z,3.20
2018-08-10T07:02:20.289Z,3.40
2018-08-10T07:04:49.087Z,3.53
2018-08-10T07:07:17.497Z,2.90
2018-08-10T07:09:45.757Z,3.00
2018-08-10T07:12:14.359Z,2.67
2018-08-10T07:14:42.648Z,2.80
2018-08-10T07:17:10.957Z,3.50
2018-08-10T07:19:39.288Z,2.73
2018-08-10T07:22:08.429Z,3.47
2018-08-10T07:24:36.759Z,3.33
2018-08-10T07:27:05.126Z,3.27
2018-08-10T07:29:33.404Z,3.03
2018-08-10T07:32:01.757Z,3.63
2018-08-10T07:34:30.672Z,2.87
2018-08-10T07:36:59.003Z,2.80
2018-08-10T07:39:27.339Z,2.63
2018-08-10T07:41:55.641Z,3.30
2018-08-10T07:44:24.080Z,2.90
2018-08-10T07:46:52.401Z,2.93
2018-08-10T07:49:20.730Z,3.25
2018-08-10T07:51:49.054Z,3.13
2018-08-10T07:54:17.413Z,3.00
2018-08-10T07:56:45.794Z,2.60
2018-08-10T07:59:14.154Z,2.93
2018-08-10T08:01:42.459Z,2.23
2018-08-10T08:04:11.112Z,3.00
2018-08-10T08:06:39.462Z,2.97
2018-08-10T08:09:09.836Z,3.00
2018-08-10T08:11:38.250Z,2.80
2018-08-10T08:14:06.840Z,2.60
2018-08-10T08:16:35.429Z,2.67
2018-08-10T08:23:58.979Z,3.13
2018-08-10T08:26:27.441Z,2.47
2018-08-10T08:28:55.841Z,2.67
2018-08-10T08:31:24.278Z,2.47
2018-08-10T08:34:00.805Z,2.33
2018-08-10T08:36:29.105Z,2.37
2018-08-10T08:41:09.920Z,2.47
2018-08-10T08:44:51.356Z,2.47
2018-08-10T08:47:19.719Z,2.25
2018-08-10T08:49:48.148Z,2.13
2018-08-10T08:52:16.578Z,2.47
2018-08-10T08:54:56.349Z,1.97
2018-08-10T08:57:24.705Z,2.42
2018-08-10T08:59:53.055Z,2.10
2018-08-10T09:02:21.432Z,1.98
2018-08-10T09:05:00.112Z,1.70
2018-08-10T09:07:29.231Z,1.60
2018-08-10T09:09:57.984Z,1.80
2018-08-10T09:12:26.432Z,1.83
2018-08-10T09:14:58.116Z,1.90
2018-08-10T09:17:26.547Z,1.87
2018-08-10T09:19:54.806Z,2.10
2018-08-10T09:22:24.096Z,2.10
2018-08-10T09:24:52.400Z,2.10
2018-08-10T09:27:20.818Z,2.44
2018-08-10T09:29:49.159Z,2.20
2018-08-10T09:32:17.491Z,2.20
2018-08-10T09:34:45.815Z,1.93
2018-08-10T09:37:14.135Z,2.07
2018-08-10T09:39:42.490Z,2.13
2018-08-10T09:42:10.862Z,1.70
2018-08-10T09:44:39.198Z,1.67
2018-08-10T09:47:08.282Z,1.73
2018-08-10T09:49:40.004Z,1.60
2018-08-10T09:52:08.548Z,1.90
2018-08-10T09:55:25.150Z,1.52
2018-08-10T09:57:56.725Z,1.80
2018-08-10T10:00:30.309Z,1.27
2018-08-10T10:03:04.041Z,1.87
2018-08-10T10:05:32.435Z,1.20
2018-08-10T10:08:00.772Z,1.27
2018-08-10T10:10:29.167Z,1.60
2018-08-10T10:12:58.009Z,1.73
2018-08-10T10:15:26.430Z,1.60
2018-08-10T10:17:54.817Z,1.47
2018-08-10T10:20:23.245Z,1.20
2018-08-10T10:22:51.738Z,1.30
2018-08-10T10:25:20.240Z,1.57
2018-08-10T10:27:48.599Z,1.17
2018-08-10T10:30:16.972Z,1.20
2018-08-10T10:32:45.415Z,1.23
2018-08-10T10:35:13.630Z,1.37
2018-08-10T10:37:41.952Z,1.27
2018-08-10T10:40:10.975Z,1.30
2018-08-10T10:42:39.333Z,1.30
2018-08-10T10:45:10.521Z,1.40
2018-08-10T10:47:38.888Z,1.63
2018-08-10T10:50:08.481Z,1.23
2018-08-10T10:52:37.321Z,1.57
2018-08-10T10:55:05.865Z,1.40
2018-08-10T10:57:34.191Z,1.43
2018-08-10T11:00:02.546Z,1.50
2018-08-10T11:02:30.904Z,1.20
2018-08-10T11:04:59.242Z,1.40
2018-08-10T11:07:27.533Z,1.50
2018-08-10T11:09:55.907Z,1.37
2018-08-10T11:12:24.248Z,1.40
2018-08-10T11:14:52.598Z,1.20
2018-08-10T11:17:21.838Z,1.30
2018-08-10T11:19:50.154Z,0.87
2018-08-10T11:22:18.501Z,1.42
2018-08-10T11:24:46.838Z,1.30
2018-08-10T11:27:15.147Z,1.53
2018-08-10T11:29:43.523Z,1.60
2018-08-10T11:32:12.015Z,1.50
2018-08-10T11:34:40.339Z,1.40
2018-08-10T11:37:09.371Z,1.60
2018-08-10T11:39:37.690Z,1.43
2018-08-10T11:42:06.136Z,1.60
2018-08-10T11:44:34.393Z,1.43
2018-08-10T11:47:02.693Z,1.87
2018-08-10T11:49:31.023Z,2.13
2018-08-10T11:51:59.332Z,1.93
2018-08-10T11:54:27.645Z,1.80
2018-08-10T11:56:55.970Z,1.67
2018-08-10T11:59:24.403Z,2.00
2018-08-10T12:01:52.766Z,1.67
2018-08-10T12:04:21.109Z,1.40
2018-08-10T12:06:49.411Z,1.70
2018-08-10T12:09:17.802Z,1.30
2018-08-10T12:11:46.268Z,1.97
2018-08-10T12:14:14.614Z,1.40
2018-08-10T12:16:42.928Z,1.73
2018-08-10T12:19:12.401Z,1.60
2018-08-10T12:21:40.631Z,1.50
2018-08-10T12:24:09.528Z,2.00
2018-08-10T12:26:37.835Z,1.40
2018-08-10T12:29:06.348Z,1.50
2018-08-10T12:31:34.688Z,1.43
2018-08-10T12:34:02.996Z,1.60
2018-08-10T12:36:31.319Z,1.70
2018-08-10T12:38:59.731Z,1.60
2018-08-10T12:41:28.093Z,1.90
2018-08-10T12:43:56.481Z,1.70
2018-08-10T12:46:24.812Z,1.40
2018-08-10T12:48:53.337Z,1.63
2018-08-10T12:51:21.700Z,1.50
2018-08-10T12:53:50.016Z,1.40
2018-08-10T12:56:18.451Z,1.55
2018-08-10T12:58:46.837Z,1.50
2018-08-10T13:01:15.171Z,1.45
2018-08-10T13:03:43.613Z,1.33
2018-08-10T13:06:11.933Z,1.30
2018-08-10T13:08:40.379Z,1.30
2018-08-10T13:11:08.710Z,1.50
2018-08-10T13:13:37.022Z,1.30
2018-08-10T13:16:05.452Z,1.40
2018-08-10T13:18:33.955Z,1.30
2018-08-10T13:21:02.271Z,1.30
2018-08-10T13:23:30.664Z,0.93
2018-08-10T13:25:59.098Z,1.42
2018-08-10T13:28:27.423Z,1.33
2018-08-10T13:30:55.768Z,1.25
2018-08-10T13:33:24.204Z,1.40
2018-08-10T13:35:52.665Z,1.30
2018-08-10T13:38:21.011Z,1.27
2018-08-10T13:40:49.454Z,1.00
2018-08-10T13:43:17.857Z,1.40
2018-08-10T13:45:47.063Z,1.00
2018-08-10T13:48:17.146Z,0.78
2018-08-10T13:50:45.482Z,0.80
2018-08-10T13:53:13.879Z,1.17
2018-08-10T13:55:42.226Z,1.20
2018-08-10T13:58:10.522Z,1.20
2018-08-10T14:00:38.877Z,1.17
2018-08-10T14:03:07.271Z,1.07
2018-08-10T14:05:35.619Z,1.03
2018-08-10T14:08:04.107Z,1.10
2018-08-10T14:10:32.500Z,0.90
2018-08-10T14:13:00.854Z,0.87
2018-08-10T14:15:29.204Z,1.13
2018-08-10T14:17:57.553Z,1.10
2018-08-10T14:20:25.909Z,0.90
2018-08-10T14:22:54.349Z,1.20
2018-08-10T14:25:22.848Z,1.10
2018-08-10T14:27:51.250Z,1.00
2018-08-10T14:30:19.844Z,0.90
2018-08-10T14:32:48.144Z,1.53
2018-08-10T14:35:16.509Z,1.07
2018-08-10T14:37:44.869Z,1.30
2018-08-10T14:40:13.989Z,1.30
2018-08-10T14:42:42.407Z,1.00
2018-08-10T14:45:13.846Z,1.00
2018-08-10T14:47:42.217Z,1.10
2018-08-10T14:50:12.281Z,1.10
2018-08-10T14:52:40.838Z,1.20
2018-08-10T14:55:10.996Z,1.10
2018-08-10T14:57:39.426Z,0.90
2018-08-10T15:00:11.155Z,1.30
2018-08-10T15:02:39.741Z,1.10
2018-08-10T15:05:08.482Z,1.40
2018-08-10T15:07:36.880Z,1.00
2018-08-10T15:10:06.176Z,1.03
2018-08-10T15:12:34.807Z,1.13
2018-08-10T15:15:02.927Z,0.97
2018-08-10T15:17:31.305Z,1.20
2018-08-10T15:19:59.675Z,0.90
2018-08-10T15:22:28.065Z,1.23
2018-08-10T15:24:56.594Z,1.03
2018-08-10T15:27:25.404Z,1.30
2018-08-10T15:29:53.806Z,1.10
2018-08-10T15:32:22.213Z,1.10
2018-08-10T15:34:50.616Z,1.00
2018-08-10T15:37:18.945Z,0.90
2018-08-10T15:39:47.399Z,1.17
2018-08-10T15:42:15.853Z,1.03
2018-08-10T15:44:44.299Z,1.17
2018-08-10T15:47:12.656Z,0.93
2018-08-10T15:49:41.021Z,1.00
2018-08-10T15:52:09.456Z,1.20
2018-08-10T15:54:37.752Z,1.32
2018-08-10T15:57:06.145Z,1.13
2018-08-10T15:59:34.498Z,1.30
2018-08-10T16:02:02.899Z,1.00
2018-08-10T16:04:31.320Z,1.43
2018-08-10T16:06:59.707Z,1.07
2018-08-10T16:09:28.074Z,0.90
2018-08-10T16:11:56.363Z,1.27
2018-08-10T16:14:24.720Z,1.10
2018-08-10T16:16:53.117Z,1.20
2018-08-10T16:19:21.497Z,0.80
2018-08-10T16:21:50.835Z,1.07
2018-08-10T16:24:19.186Z,0.98
2018-08-10T16:26:47.526Z,0.93
2018-08-10T16:29:15.856Z,1.30
2018-08-10T16:31:44.276Z,1.40
2018-08-10T16:34:12.639Z,1.50
2018-08-10T16:36:41.025Z,1.17
2018-08-10T16:39:11.082Z,1.10
2018-08-10T16:41:40.241Z,1.20
2018-08-10T16:44:08.577Z,1.10
2018-08-10T16:46:36.876Z,1.10
2018-08-10T16:49:05.417Z,1.30
2018-08-10T16:51:33.908Z,1.23
2018-08-10T16:54:02.281Z,1.00
2018-08-10T16:56:30.679Z,1.30
2018-08-10T16:58:59.052Z,1.20
2018-08-10T17:01:27.421Z,1.30
2018-08-10T17:03:56.187Z,1.40
2018-08-10T17:06:24.516Z,1.03
2018-08-10T17:08:53.596Z,1.20
2018-08-10T17:11:22.794Z,1.13
2018-08-10T17:13:51.144Z,1.30
2018-08-10T17:16:20.324Z,1.50
2018-08-10T17:18:48.704Z,1.03
2018-08-10T17:21:17.150Z,1.40
2018-08-10T17:23:45.523Z,1.10
2018-08-10T17:26:14.067Z,1.40
2018-08-10T17:28:42.505Z,1.40
2018-08-10T17:31:10.871Z,1.20
2018-08-10T17:33:39.205Z,1.20
2018-08-10T17:36:07.679Z,1.67
2018-08-10T17:38:36.193Z,1.30
2018-08-10T17:41:04.738Z,1.70
2018-08-10T17:43:33.187Z,1.23
2018-08-10T17:46:01.545Z,1.10
2018-08-10T17:48:29.926Z,1.50
2018-08-10T17:50:58.288Z,1.07
2018-08-10T17:53:26.877Z,1.33
2018-08-10T17:55:55.257Z,1.40
2018-08-10T17:58:23.761Z,1.33
2018-08-10T18:00:52.785Z,1.10
2018-08-10T18:03:21.335Z,1.02
2018-08-10T18:05:49.678Z,1.20
2018-08-10T18:08:18.168Z,1.10
2018-08-10T18:10:46.548Z,1.63
2018-08-10T18:13:15.981Z,1.30
2018-08-10T18:15:45.348Z,1.33
2018-08-10T18:18:13.941Z,1.23
2018-08-10T18:20:42.639Z,1.47
2018-08-10T18:23:11.019Z,1.67
2018-08-10T18:25:40.561Z,1.37
2018-08-10T18:28:09.190Z,1.50
2018-08-10T18:30:37.758Z,1.20
2018-08-10T18:33:06.490Z,1.57
2018-08-10T18:35:35.304Z,1.32
2018-08-10T18:38:03.945Z,1.60
2018-08-10T18:40:32.303Z,1.57
2018-08-10T18:43:01.111Z,1.30
2018-08-10T18:45:30.550Z,1.27
2018-08-10T18:47:59.070Z,1.30
2018-08-10T18:50:27.667Z,1.50
2018-08-10T18:52:56.030Z,1.10
2018-08-10T18:55:24.702Z,1.40
2018-08-10T18:57:53.523Z,1.13
2018-08-10T19:00:23.740Z,1.10
2018-08-10T19:02:52.382Z,1.33
2018-08-10T19:05:20.996Z,1.00
2018-08-10T19:07:49.795Z,1.13
2018-08-10T19:10:21.972Z,1.30
2018-08-10T19:12:50.359Z,1.60
2018-08-10T19:15:18.758Z,1.27
2018-08-10T19:17:47.616Z,1.30
2018-08-10T19:20:16.288Z,1.12
2018-08-10T19:22:45.201Z,1.07
2018-08-10T19:25:14.470Z,1.52
2018-08-10T19:27:42.729Z,1.17
2018-08-10T19:30:14.584Z,1.30
2018-08-10T19:32:44.069Z,1.40
2018-08-10T19:35:12.609Z,1.40
2018-08-10T19:37:41.298Z,1.20
2018-08-10T19:40:12.097Z,1.10
2018-08-10T19:42:40.615Z,1.30
2018-08-10T19:45:10.083Z,1.40
2018-08-10T19:47:38.842Z,1.40
2018-08-10T19:50:08.313Z,1.30
2018-08-10T19:52:36.773Z,1.00
2018-08-10T19:55:06.823Z,1.43
2018-08-10T19:57:35.424Z,1.40
2018-08-10T20:00:06.253Z,1.60
2018-08-10T20:02:34.859Z,1.50
2018-08-10T20:05:03.426Z,1.60
2018-08-10T20:07:32.026Z,1.30
2018-08-10T20:10:00.521Z,1.27
2018-08-10T20:12:29.107Z,1.17
2018-08-10T20:14:57.527Z,1.23
2018-08-10T20:17:26.116Z,1.17
2018-08-10T20:19:54.524Z,1.53
2018-08-10T20:22:23.003Z,1.20
2018-08-10T20:24:51.632Z,1.40
2018-08-10T20:27:20.026Z,1.30
2018-08-10T20:29:48.308Z,1.47
2018-08-10T20:32:16.648Z,1.23
2018-08-10T20:34:44.977Z,1.40
2018-08-10T20:37:13.619Z,1.20
2018-08-10T20:39:41.928Z,1.47
2018-08-10T20:42:10.329Z,1.60
2018-08-10T20:44:38.737Z,1.20
2018-08-10T20:47:07.040Z,1.47
2018-08-10T20:49:35.403Z,1.30
2018-08-10T20:52:03.803Z,1.77
2018-08-10T20:54:32.205Z,1.20
2018-08-10T20:57:00.539Z,1.30
2018-08-10T20:59:28.831Z,1.40
2018-08-10T21:01:57.113Z,1.23
2018-08-10T21:04:25.444Z,1.27
2018-08-10T21:06:53.716Z,1.47
2018-08-10T21:09:22.049Z,1.45
2018-08-10T21:11:50.372Z,1.40
2018-08-10T21:14:18.682Z,1.60
2018-08-10T21:16:47.023Z,1.53
2018-08-10T21:19:15.474Z,1.22
2018-08-10T21:21:43.725Z,1.47
2018-08-10T21:24:12.060Z,1.50
2018-08-10T21:26:40.517Z,1.90
2018-08-10T21:29:08.753Z,1.20
2018-08-10T21:31:37.064Z,1.43
2018-08-10T21:34:05.423Z,1.40
2018-08-10T21:36:33.706Z,1.30
2018-08-10T21:39:01.973Z,1.60
2018-08-10T21:41:30.321Z,1.83
2018-08-10T21:43:58.624Z,1.80
2018-08-10T21:46:26.921Z,1.50
2018-08-10T21:48:55.264Z,1.47
2018-08-10T21:51:23.611Z,1.33
2018-08-10T21:53:51.930Z,1.57
2018-08-10T21:56:20.818Z,1.62
2018-08-10T21:58:49.147Z,1.60
2018-08-10T22:01:17.501Z,1.40
2018-08-10T22:03:45.882Z,1.30
2018-08-10T22:06:14.198Z,1.30
2018-08-10T22:08:42.496Z,1.40
2018-08-10T22:11:10.924Z,1.73
2018-08-10T22:13:44.602Z,1.63
2018-08-10T22:16:18.181Z,1.20
2018-08-10T22:18:51.859Z,1.50
2018-08-10T22:21:20.257Z,1.67
2018-08-10T22:23:48.558Z,1.63
2018-08-10T22:26:16.855Z,1.50
2018-08-10T22:28:45.183Z,1.27
2018-08-10T22:31:13.505Z,1.50
2018-08-10T22:33:41.815Z,1.60
2018-08-10T22:36:10.086Z,1.63
2018-08-10T22:38:38.354Z,1.70
2018-08-10T22:41:06.748Z,1.50
2018-08-10T22:43:35.096Z,1.30
2018-08-10T22:46:03.905Z,1.30
2018-08-10T22:48:32.307Z,1.30
2018-08-10T22:51:00.741Z,1.57
2018-08-10T22:53:29.149Z,1.27
2018-08-10T22:55:57.536Z,1.70
2018-08-10T22:58:25.803Z,1.50
2018-08-10T23:00:54.146Z,1.23
2018-08-10T23:03:22.448Z,1.33
2018-08-10T23:05:50.766Z,1.50
2018-08-10T23:08:19.215Z,1.70
2018-08-10T23:10:47.486Z,1.93
2018-08-10T23:13:15.783Z,1.80
2018-08-10T23:15:44.125Z,1.80
2018-08-10T23:18:12.458Z,2.00
2018-08-10T23:20:40.786Z,1.83
2018-08-10T23:23:09.057Z,2.30
2018-08-10T23:25:37.355Z,2.03
2018-08-10T23:28:05.680Z,2.00
2018-08-10T23:30:34.200Z,2.50
2018-08-10T23:33:03.116Z,2.60
2018-08-10T23:35:31.392Z,2.03
2018-08-10T23:37:59.697Z,2.53
2018-08-10T23:40:28.008Z,2.80
2018-08-10T23:42:56.369Z,3.00
2018-08-10T23:45:24.746Z,3.00
2018-08-10T23:47:53.052Z,2.90
2018-08-10T23:50:21.440Z,3.20
2018-08-10T23:52:49.725Z,3.77
2018-08-10T23:55:19.847Z,3.37
2018-08-10T23:57:48.208Z,3.23
